Ford Heights, Illinois
Current Conditions -  °F | °C
As of 2:55 PM on Friday 31 Oct 2014 (Local Time) from KIGQ Reporting Station
Light Rain Light Rain  
Wind Chill: 29°   Ceiling: 2100
Heat Index: 38°   Visibility: 10mi
Dew Point: 33°   Wind: 16mph
Humidity: 81%   Direction: 340°NNW
Pressure: 30.14"   Gusts: 33mph
Location:  41.5054°N, 87.5907°W
Report Text: KIGQ 311955Z AUTO 34014G29KT 10SM -RA OVC021 04/01 A3014 RMK AO2 T00350006
Loading
Personal Weather Stations






























Interactive Weather Map New forecast layout! Learn more

10-Day Weather Forecast

Advertisements
Track Severe Weather on mobile